Portada
METAR-TAF:

METAR-TAF

Aeroports :

Tientsin, Xina

latitud: 39-11N, longitud: 117-21E, altitud: 3 m

Observació

L'informe es va fer fa 25 minuts, a les 04:30 UTC
Vent 8 kt del Oest/Nord-Oest, variant entre Oest/Sud-Oest i Nord/Nord-Oest
Temperatura 16°C
Humitat 27%
Pressió 1033 hPa
Visibilitat 10 km o més
sense núvols per sota de 1500 mi sense presència de cumulonimbus.

METAR: ZBTJ 150430Z 29004MPS 240V330 CAVOK 16/M03 Q1033 NOSIG

Hora: 12:55 (04:55 UTC)

Pronòstic

L'informe es va fer fa 9 hores i 45 minuts, a les 19:10 UTC
Pronòstic vàlid del 15 a les 00 UTC al 15 a les 24 UTC
Vent 6 kt del Oest
Visibilitat 10 km o més
sense núvols per sota de 1500 mi sense presència de cumulonimbus.

TAF: ZBTJ 141910Z 1500/1524 27003MPS CAVOK TX18/1507Z TN07/1521Z

Observacions i pronòstics meteorològics de més de 4000 aeroports (METAR i TAF).

Les estacions disponibles són els punts grocs i vermells al mapa.

Posi el ratolí al punt desitjat per veure el nom de l'estació.

Feu clic per veure les observacions i els pronòstics meteorològics.

Per canviar el mapa: feu clic els botons verds amb una creu de color negre per apropar; al botó verd amb un guió per allunyar la imatge; o en les fletxes verdes per a mapes adjacents.


METAR-TAF: